sensor_id;sensor_type;location;lat;lon;timestamp;P1;durP1;ratioP1;P2;durP2;ratioP2
20080;SDS011;10200;49.232;9.222;2023-12-28T00:02:16;16.57;;;9.60;;
20080;SDS011;10200;49.232;9.222;2023-12-28T00:04:41;16.60;;;9.27;;
20080;SDS011;10200;49.232;9.222;2023-12-28T00:07:07;13.30;;;10.13;;
20080;SDS011;10200;49.232;9.222;2023-12-28T00:09:32;12.77;;;9.47;;
20080;SDS011;10200;49.232;9.222;2023-12-28T00:11:58;16.80;;;10.30;;
20080;SDS011;10200;49.232;9.222;2023-12-28T00:14:24;14.97;;;9.63;;
20080;SDS011;10200;49.232;9.222;2023-12-28T00:16:49;14.13;;;8.67;;
20080;SDS011;10200;49.232;9.222;2023-12-28T00:19:15;14.30;;;8.87;;
20080;SDS011;10200;49.232;9.222;2023-12-28T00:21:40;11.60;;;8.07;;
20080;SDS011;10200;49.232;9.222;2023-12-28T00:24:06;12.47;;;8.70;;
20080;SDS011;10200;49.232;9.222;2023-12-28T00:26:32;11.73;;;7.90;;
20080;SDS011;10200;49.232;9.222;2023-12-28T00:28:57;12.70;;;8.03;;
20080;SDS011;10200;49.232;9.222;2023-12-28T00:31:23;12.70;;;8.07;;
20080;SDS011;10200;49.232;9.222;2023-12-28T00:33:48;16.27;;;9.20;;
20080;SDS011;10200;49.232;9.222;2023-12-28T00:36:15;14.90;;;9.57;;
20080;SDS011;10200;49.232;9.222;2023-12-28T00:38:41;15.23;;;8.60;;
20080;SDS011;10200;49.232;9.222;2023-12-28T00:41:07;16.03;;;9.50;;
20080;SDS011;10200;49.232;9.222;2023-12-28T00:43:32;15.80;;;8.63;;
20080;SDS011;10200;49.232;9.222;2023-12-28T00:45:58;14.77;;;8.87;;
20080;SDS011;10200;49.232;9.222;2023-12-28T00:48:24;15.87;;;9.60;;
20080;SDS011;10200;49.232;9.222;2023-12-28T00:50:50;11.23;;;7.87;;
20080;SDS011;10200;49.232;9.222;2023-12-28T00:53:15;14.93;;;9.00;;
20080;SDS011;10200;49.232;9.222;2023-12-28T00:55:41;12.83;;;8.17;;
20080;SDS011;10200;49.232;9.222;2023-12-28T00:58:06;11.80;;;8.07;;
20080;SDS011;10200;49.232;9.222;2023-12-28T01:00:32;11.63;;;8.23;;
20080;SDS011;10200;49.232;9.222;2023-12-28T01:02:57;12.20;;;7.63;;
20080;SDS011;10200;49.232;9.222;2023-12-28T01:05:23;14.63;;;8.40;;
20080;SDS011;10200;49.232;9.222;2023-12-28T01:07:51;10.37;;;7.80;;
20080;SDS011;10200;49.232;9.222;2023-12-28T01:10:16;12.37;;;7.27;;
20080;SDS011;10200;49.232;9.222;2023-12-28T01:12:42;9.93;;;6.73;;
20080;SDS011;10200;49.232;9.222;2023-12-28T01:15:08;12.23;;;6.53;;
20080;SDS011;10200;49.232;9.222;2023-12-28T01:17:33;11.07;;;7.40;;
20080;SDS011;10200;49.232;9.222;2023-12-28T01:19:59;10.37;;;7.73;;
20080;SDS011;10200;49.232;9.222;2023-12-28T01:22:25;10.30;;;6.23;;
20080;SDS011;10200;49.232;9.222;2023-12-28T01:24:50;7.43;;;6.13;;
20080;SDS011;10200;49.232;9.222;2023-12-28T01:27:16;10.37;;;7.70;;
20080;SDS011;10200;49.232;9.222;2023-12-28T01:29:41;11.50;;;8.00;;
20080;SDS011;10200;49.232;9.222;2023-12-28T01:32:07;11.53;;;7.93;;
20080;SDS011;10200;49.232;9.222;2023-12-28T01:34:32;13.57;;;6.47;;
20080;SDS011;10200;49.232;9.222;2023-12-28T01:36:58;8.63;;;6.47;;
20080;SDS011;10200;49.232;9.222;2023-12-28T01:39:24;9.90;;;6.90;;
20080;SDS011;10200;49.232;9.222;2023-12-28T01:41:49;10.77;;;6.83;;
20080;SDS011;10200;49.232;9.222;2023-12-28T01:44:15;9.50;;;7.00;;
20080;SDS011;10200;49.232;9.222;2023-12-28T01:46:40;9.30;;;6.50;;
20080;SDS011;10200;49.232;9.222;2023-12-28T01:49:06;12.20;;;7.03;;
20080;SDS011;10200;49.232;9.222;2023-12-28T01:51:32;8.97;;;6.67;;
20080;SDS011;10200;49.232;9.222;2023-12-28T01:53:58;8.00;;;6.07;;
20080;SDS011;10200;49.232;9.222;2023-12-28T01:56:24;11.27;;;7.30;;
20080;SDS011;10200;49.232;9.222;2023-12-28T01:58:50;10.17;;;6.90;;
20080;SDS011;10200;49.232;9.222;2023-12-28T02:01:19;11.10;;;6.73;;
20080;SDS011;10200;49.232;9.222;2023-12-28T02:03:45;10.17;;;7.03;;
20080;SDS011;10200;49.232;9.222;2023-12-28T02:06:11;7.80;;;6.20;;
20080;SDS011;10200;49.232;9.222;2023-12-28T02:08:41;8.77;;;6.77;;
20080;SDS011;10200;49.232;9.222;2023-12-28T02:11:07;8.57;;;6.57;;
20080;SDS011;10200;49.232;9.222;2023-12-28T02:13:32;10.63;;;6.63;;
20080;SDS011;10200;49.232;9.222;2023-12-28T02:16:00;9.93;;;7.10;;
20080;SDS011;10200;49.232;9.222;2023-12-28T02:18:34;11.83;;;7.60;;
20080;SDS011;10200;49.232;9.222;2023-12-28T02:21:04;7.60;;;6.43;;
20080;SDS011;10200;49.232;9.222;2023-12-28T02:23:32;8.97;;;6.17;;
20080;SDS011;10200;49.232;9.222;2023-12-28T02:25:58;9.13;;;6.13;;
20080;SDS011;10200;49.232;9.222;2023-12-28T02:28:24;12.00;;;7.20;;
20080;SDS011;10200;49.232;9.222;2023-12-28T02:30:49;11.70;;;6.77;;
20080;SDS011;10200;49.232;9.222;2023-12-28T02:33:17;11.93;;;6.80;;
20080;SDS011;10200;49.232;9.222;2023-12-28T02:35:47;10.80;;;6.80;;
20080;SDS011;10200;49.232;9.222;2023-12-28T02:38:29;11.53;;;7.07;;
20080;SDS011;10200;49.232;9.222;2023-12-28T02:40:57;9.40;;;6.63;;
20080;SDS011;10200;49.232;9.222;2023-12-28T02:43:23;8.87;;;6.20;;
20080;SDS011;10200;49.232;9.222;2023-12-28T02:45:49;8.73;;;6.50;;
20080;SDS011;10200;49.232;9.222;2023-12-28T02:48:14;8.37;;;6.43;;
20080;SDS011;10200;49.232;9.222;2023-12-28T02:50:40;9.60;;;6.57;;
20080;SDS011;10200;49.232;9.222;2023-12-28T02:53:05;10.87;;;7.10;;
20080;SDS011;10200;49.232;9.222;2023-12-28T02:55:31;8.43;;;6.27;;
20080;SDS011;10200;49.232;9.222;2023-12-28T02:57:57;11.17;;;7.07;;
20080;SDS011;10200;49.232;9.222;2023-12-28T03:00:27;8.30;;;6.63;;
20080;SDS011;10200;49.232;9.222;2023-12-28T03:02:53;10.90;;;6.40;;
20080;SDS011;10200;49.232;9.222;2023-12-28T03:05:18;7.07;;;5.60;;
20080;SDS011;10200;49.232;9.222;2023-12-28T03:07:44;9.20;;;6.77;;
20080;SDS011;10200;49.232;9.222;2023-12-28T03:10:10;9.43;;;5.70;;
20080;SDS011;10200;49.232;9.222;2023-12-28T03:12:36;9.20;;;6.03;;
20080;SDS011;10200;49.232;9.222;2023-12-28T03:15:02;10.23;;;6.40;;
20080;SDS011;10200;49.232;9.222;2023-12-28T03:17:28;7.37;;;6.30;;
20080;SDS011;10200;49.232;9.222;2023-12-28T03:19:55;9.40;;;6.20;;
20080;SDS011;10200;49.232;9.222;2023-12-28T03:22:24;8.43;;;6.23;;
20080;SDS011;10200;49.232;9.222;2023-12-28T03:24:50;10.63;;;6.30;;
20080;SDS011;10200;49.232;9.222;2023-12-28T03:27:16;10.57;;;6.33;;
20080;SDS011;10200;49.232;9.222;2023-12-28T03:29:41;9.73;;;6.43;;
20080;SDS011;10200;49.232;9.222;2023-12-28T03:32:08;8.57;;;6.37;;
20080;SDS011;10200;49.232;9.222;2023-12-28T03:34:33;12.17;;;6.87;;
20080;SDS011;10200;49.232;9.222;2023-12-28T03:36:59;7.87;;;5.97;;
20080;SDS011;10200;49.232;9.222;2023-12-28T03:39:25;9.27;;;6.27;;
20080;SDS011;10200;49.232;9.222;2023-12-28T03:41:51;12.07;;;6.13;;
20080;SDS011;10200;49.232;9.222;2023-12-28T03:44:18;12.40;;;6.80;;
20080;SDS011;10200;49.232;9.222;2023-12-28T03:46:47;7.37;;;5.67;;
20080;SDS011;10200;49.232;9.222;2023-12-28T03:49:20;9.50;;;6.47;;
20080;SDS011;10200;49.232;9.222;2023-12-28T03:51:47;10.07;;;6.30;;
20080;SDS011;10200;49.232;9.222;2023-12-28T03:54:17;9.00;;;6.20;;
20080;SDS011;10200;49.232;9.222;2023-12-28T03:56:43;19.33;;;7.20;;
20080;SDS011;10200;49.232;9.222;2023-12-28T03:59:09;7.87;;;5.67;;
20080;SDS011;10200;49.232;9.222;2023-12-28T04:01:35;9.20;;;6.60;;
20080;SDS011;10200;49.232;9.222;2023-12-28T04:04:01;7.50;;;5.80;;
20080;SDS011;10200;49.232;9.222;2023-12-28T04:06:26;7.47;;;5.63;;
20080;SDS011;10200;49.232;9.222;2023-12-28T04:08:52;9.20;;;6.23;;
20080;SDS011;10200;49.232;9.222;2023-12-28T04:11:18;7.50;;;5.80;;
20080;SDS011;10200;49.232;9.222;2023-12-28T04:13:43;7.07;;;5.97;;
20080;SDS011;10200;49.232;9.222;2023-12-28T04:16:13;7.93;;;5.87;;
20080;SDS011;10200;49.232;9.222;2023-12-28T04:18:39;9.50;;;6.37;;
20080;SDS011;10200;49.232;9.222;2023-12-28T04:21:09;9.60;;;6.30;;
20080;SDS011;10200;49.232;9.222;2023-12-28T04:23:39;10.53;;;6.07;;
20080;SDS011;10200;49.232;9.222;2023-12-28T04:26:05;9.30;;;6.13;;
20080;SDS011;10200;49.232;9.222;2023-12-28T04:28:30;10.30;;;6.47;;
20080;SDS011;10200;49.232;9.222;2023-12-28T04:30:56;8.60;;;6.27;;
20080;SDS011;10200;49.232;9.222;2023-12-28T04:33:22;11.60;;;6.80;;
20080;SDS011;10200;49.232;9.222;2023-12-28T04:35:47;10.50;;;6.13;;
20080;SDS011;10200;49.232;9.222;2023-12-28T04:38:13;8.53;;;6.60;;
20080;SDS011;10200;49.232;9.222;2023-12-28T04:40:38;6.50;;;5.70;;
20080;SDS011;10200;49.232;9.222;2023-12-28T04:43:04;9.10;;;5.80;;
20080;SDS011;10200;49.232;9.222;2023-12-28T04:45:30;6.00;;;5.33;;
20080;SDS011;10200;49.232;9.222;2023-12-28T04:47:55;7.77;;;5.57;;
20080;SDS011;10200;49.232;9.222;2023-12-28T04:50:21;7.27;;;5.50;;
20080;SDS011;10200;49.232;9.222;2023-12-28T04:52:47;11.07;;;5.53;;
20080;SDS011;10200;49.232;9.222;2023-12-28T04:55:13;9.03;;;5.23;;
20080;SDS011;10200;49.232;9.222;2023-12-28T04:57:40;9.43;;;5.33;;
20080;SDS011;10200;49.232;9.222;2023-12-28T05:00:06;8.93;;;5.10;;
20080;SDS011;10200;49.232;9.222;2023-12-28T05:02:33;6.13;;;5.17;;
20080;SDS011;10200;49.232;9.222;2023-12-28T05:04:58;6.90;;;4.73;;
20080;SDS011;10200;49.232;9.222;2023-12-28T05:07:24;6.83;;;4.80;;
20080;SDS011;10200;49.232;9.222;2023-12-28T05:09:50;5.90;;;4.87;;
20080;SDS011;10200;49.232;9.222;2023-12-28T05:12:15;6.77;;;4.87;;
20080;SDS011;10200;49.232;9.222;2023-12-28T05:14:41;8.83;;;4.90;;
20080;SDS011;10200;49.232;9.222;2023-12-28T05:17:06;7.77;;;5.17;;
20080;SDS011;10200;49.232;9.222;2023-12-28T05:19:32;10.13;;;5.37;;
20080;SDS011;10200;49.232;9.222;2023-12-28T05:21:57;6.23;;;5.07;;
20080;SDS011;10200;49.232;9.222;2023-12-28T05:24:23;6.67;;;5.20;;
20080;SDS011;10200;49.232;9.222;2023-12-28T05:26:49;5.80;;;4.57;;
20080;SDS011;10200;49.232;9.222;2023-12-28T05:29:14;7.00;;;5.30;;
20080;SDS011;10200;49.232;9.222;2023-12-28T05:31:40;7.87;;;4.83;;
20080;SDS011;10200;49.232;9.222;2023-12-28T05:34:05;7.13;;;4.93;;
20080;SDS011;10200;49.232;9.222;2023-12-28T05:36:31;8.20;;;6.00;;
20080;SDS011;10200;49.232;9.222;2023-12-28T05:38:56;6.47;;;4.77;;
20080;SDS011;10200;49.232;9.222;2023-12-28T05:41:22;8.87;;;5.27;;
20080;SDS011;10200;49.232;9.222;2023-12-28T05:43:47;6.07;;;4.90;;
20080;SDS011;10200;49.232;9.222;2023-12-28T05:46:13;6.80;;;5.00;;
20080;SDS011;10200;49.232;9.222;2023-12-28T05:48:39;6.33;;;4.30;;
20080;SDS011;10200;49.232;9.222;2023-12-28T05:51:04;7.30;;;5.33;;
20080;SDS011;10200;49.232;9.222;2023-12-28T05:53:30;8.50;;;4.53;;
20080;SDS011;10200;49.232;9.222;2023-12-28T05:55:55;7.10;;;5.37;;
20080;SDS011;10200;49.232;9.222;2023-12-28T05:58:21;5.70;;;4.57;;
20080;SDS011;10200;49.232;9.222;2023-12-28T06:00:46;8.73;;;4.37;;
20080;SDS011;10200;49.232;9.222;2023-12-28T06:03:13;6.70;;;4.63;;
20080;SDS011;10200;49.232;9.222;2023-12-28T06:05:39;6.67;;;4.40;;
20080;SDS011;10200;49.232;9.222;2023-12-28T06:08:05;6.03;;;4.60;;
20080;SDS011;10200;49.232;9.222;2023-12-28T06:10:30;6.47;;;5.03;;
20080;SDS011;10200;49.232;9.222;2023-12-28T06:12:56;5.87;;;4.00;;
20080;SDS011;10200;49.232;9.222;2023-12-28T06:15:22;6.70;;;5.07;;
20080;SDS011;10200;49.232;9.222;2023-12-28T06:17:47;8.57;;;5.07;;
20080;SDS011;10200;49.232;9.222;2023-12-28T06:20:13;9.53;;;5.10;;
20080;SDS011;10200;49.232;9.222;2023-12-28T06:22:38;10.63;;;4.77;;
20080;SDS011;10200;49.232;9.222;2023-12-28T06:25:04;9.63;;;4.80;;
20080;SDS011;10200;49.232;9.222;2023-12-28T06:27:31;5.60;;;4.63;;
20080;SDS011;10200;49.232;9.222;2023-12-28T06:29:56;6.47;;;4.60;;
20080;SDS011;10200;49.232;9.222;2023-12-28T06:32:22;6.53;;;4.80;;
20080;SDS011;10200;49.232;9.222;2023-12-28T06:34:47;7.80;;;5.20;;
20080;SDS011;10200;49.232;9.222;2023-12-28T06:37:13;5.97;;;4.43;;
20080;SDS011;10200;49.232;9.222;2023-12-28T06:39:39;5.93;;;4.10;;
20080;SDS011;10200;49.232;9.222;2023-12-28T06:42:05;4.60;;;3.30;;
20080;SDS011;10200;49.232;9.222;2023-12-28T06:44:30;4.67;;;3.77;;
20080;SDS011;10200;49.232;9.222;2023-12-28T06:46:56;4.30;;;2.87;;
20080;SDS011;10200;49.232;9.222;2023-12-28T06:49:22;2.60;;;2.40;;
20080;SDS011;10200;49.232;9.222;2023-12-28T06:51:47;5.13;;;3.33;;
20080;SDS011;10200;49.232;9.222;2023-12-28T06:54:13;8.57;;;2.70;;
20080;SDS011;10200;49.232;9.222;2023-12-28T06:56:40;2.90;;;2.33;;
20080;SDS011;10200;49.232;9.222;2023-12-28T06:59:05;4.90;;;1.90;;
20080;SDS011;10200;49.232;9.222;2023-12-28T07:01:31;3.47;;;2.00;;
20080;SDS011;10200;49.232;9.222;2023-12-28T07:03:56;3.53;;;2.13;;
20080;SDS011;10200;49.232;9.222;2023-12-28T07:06:24;2.50;;;2.30;;
20080;SDS011;10200;49.232;9.222;2023-12-28T07:08:50;2.93;;;2.37;;
20080;SDS011;10200;49.232;9.222;2023-12-28T07:11:15;4.57;;;2.23;;
20080;SDS011;10200;49.232;9.222;2023-12-28T07:13:41;4.47;;;2.13;;
20080;SDS011;10200;49.232;9.222;2023-12-28T07:16:07;3.47;;;2.20;;
20080;SDS011;10200;49.232;9.222;2023-12-28T07:18:32;2.80;;;1.93;;
20080;SDS011;10200;49.232;9.222;2023-12-28T07:20:58;4.13;;;1.90;;
20080;SDS011;10200;49.232;9.222;2023-12-28T07:23:25;3.03;;;2.10;;
20080;SDS011;10200;49.232;9.222;2023-12-28T07:25:52;3.63;;;1.77;;
20080;SDS011;10200;49.232;9.222;2023-12-28T07:28:18;3.47;;;2.20;;
20080;SDS011;10200;49.232;9.222;2023-12-28T07:30:43;2.13;;;1.90;;
20080;SDS011;10200;49.232;9.222;2023-12-28T07:33:09;4.30;;;1.97;;
20080;SDS011;10200;49.232;9.222;2023-12-28T07:35:35;2.47;;;1.80;;
20080;SDS011;10200;49.232;9.222;2023-12-28T07:38:00;1.97;;;1.77;;
20080;SDS011;10200;49.232;9.222;2023-12-28T07:40:27;2.33;;;2.10;;
20080;SDS011;10200;49.232;9.222;2023-12-28T07:42:52;2.20;;;1.67;;
20080;SDS011;10200;49.232;9.222;2023-12-28T07:45:18;2.37;;;2.17;;
20080;SDS011;10200;49.232;9.222;2023-12-28T07:47:48;4.13;;;2.20;;
20080;SDS011;10200;49.232;9.222;2023-12-28T07:50:15;2.57;;;1.80;;
20080;SDS011;10200;49.232;9.222;2023-12-28T07:52:41;4.87;;;2.27;;
20080;SDS011;10200;49.232;9.222;2023-12-28T07:55:07;2.97;;;1.80;;
20080;SDS011;10200;49.232;9.222;2023-12-28T07:57:34;6.67;;;2.20;;
20080;SDS011;10200;49.232;9.222;2023-12-28T08:00:00;2.43;;;1.90;;
20080;SDS011;10200;49.232;9.222;2023-12-28T08:02:26;2.40;;;1.93;;
20080;SDS011;10200;49.232;9.222;2023-12-28T08:04:52;3.10;;;2.33;;
20080;SDS011;10200;49.232;9.222;2023-12-28T08:07:18;3.57;;;2.10;;
20080;SDS011;10200;49.232;9.222;2023-12-28T08:09:43;2.70;;;2.20;;
20080;SDS011;10200;49.232;9.222;2023-12-28T08:12:09;3.07;;;1.70;;
20080;SDS011;10200;49.232;9.222;2023-12-28T08:14:35;3.57;;;2.00;;
20080;SDS011;10200;49.232;9.222;2023-12-28T08:17:00;2.10;;;1.90;;
20080;SDS011;10200;49.232;9.222;2023-12-28T08:19:26;2.43;;;1.90;;
20080;SDS011;10200;49.232;9.222;2023-12-28T08:21:51;2.57;;;2.03;;
20080;SDS011;10200;49.232;9.222;2023-12-28T08:24:17;4.10;;;1.90;;
20080;SDS011;10200;49.232;9.222;2023-12-28T08:26:42;4.10;;;1.67;;
20080;SDS011;10200;49.232;9.222;2023-12-28T08:29:08;3.80;;;2.40;;
20080;SDS011;10200;49.232;9.222;2023-12-28T08:31:33;3.43;;;2.87;;
20080;SDS011;10200;49.232;9.222;2023-12-28T08:33:59;4.03;;;2.20;;
20080;SDS011;10200;49.232;9.222;2023-12-28T08:36:24;3.20;;;2.20;;
20080;SDS011;10200;49.232;9.222;2023-12-28T08:38:50;4.33;;;2.50;;
20080;SDS011;10200;49.232;9.222;2023-12-28T08:41:22;2.40;;;2.00;;
20080;SDS011;10200;49.232;9.222;2023-12-28T08:43:52;3.67;;;2.40;;
20080;SDS011;10200;49.232;9.222;2023-12-28T08:46:19;4.43;;;2.13;;
20080;SDS011;10200;49.232;9.222;2023-12-28T08:48:45;7.60;;;2.67;;
20080;SDS011;10200;49.232;9.222;2023-12-28T08:51:11;3.20;;;2.10;;
20080;SDS011;10200;49.232;9.222;2023-12-28T08:53:39;3.90;;;2.57;;
20080;SDS011;10200;49.232;9.222;2023-12-28T08:56:26;4.50;;;2.50;;
20080;SDS011;10200;49.232;9.222;2023-12-28T08:58:50;2.47;;;2.20;;
20080;SDS011;10200;49.232;9.222;2023-12-28T09:03:43;3.17;;;2.37;;
20080;SDS011;10200;49.232;9.222;2023-12-28T09:06:10;4.27;;;2.40;;
20080;SDS011;10200;49.232;9.222;2023-12-28T09:08:35;2.63;;;2.17;;
20080;SDS011;10200;49.232;9.222;2023-12-28T09:11:01;3.33;;;2.20;;
20080;SDS011;10200;49.232;9.222;2023-12-28T09:13:26;5.80;;;2.73;;
20080;SDS011;10200;49.232;9.222;2023-12-28T09:15:52;5.13;;;3.10;;
20080;SDS011;10200;49.232;9.222;2023-12-28T09:18:18;2.73;;;2.20;;
20080;SDS011;10200;49.232;9.222;2023-12-28T09:20:43;4.83;;;1.93;;
20080;SDS011;10200;49.232;9.222;2023-12-28T09:23:09;4.40;;;1.90;;
20080;SDS011;10200;49.232;9.222;2023-12-28T09:25:35;2.17;;;1.83;;
20080;SDS011;10200;49.232;9.222;2023-12-28T09:28:03;2.10;;;1.90;;
20080;SDS011;10200;49.232;9.222;2023-12-28T09:30:29;4.37;;;1.80;;
20080;SDS011;10200;49.232;9.222;2023-12-28T09:32:55;2.20;;;2.00;;
20080;SDS011;10200;49.232;9.222;2023-12-28T09:35:20;2.00;;;1.80;;
20080;SDS011;10200;49.232;9.222;2023-12-28T09:37:46;3.17;;;2.00;;
20080;SDS011;10200;49.232;9.222;2023-12-28T09:40:12;2.67;;;1.90;;
20080;SDS011;10200;49.232;9.222;2023-12-28T09:42:40;2.23;;;2.00;;
20080;SDS011;10200;49.232;9.222;2023-12-28T09:45:14;3.93;;;1.77;;
20080;SDS011;10200;49.232;9.222;2023-12-28T09:47:40;2.40;;;2.00;;
20080;SDS011;10200;49.232;9.222;2023-12-28T09:50:08;3.13;;;2.20;;
20080;SDS011;10200;49.232;9.222;2023-12-28T09:52:33;2.43;;;1.60;;
20080;SDS011;10200;49.232;9.222;2023-12-28T09:54:59;2.53;;;1.93;;
20080;SDS011;10200;49.232;9.222;2023-12-28T09:57:24;4.80;;;2.03;;
20080;SDS011;10200;49.232;9.222;2023-12-28T09:59:50;3.07;;;2.00;;
20080;SDS011;10200;49.232;9.222;2023-12-28T10:02:16;4.03;;;1.70;;
20080;SDS011;10200;49.232;9.222;2023-12-28T10:04:42;3.90;;;1.83;;
20080;SDS011;10200;49.232;9.222;2023-12-28T10:07:08;3.60;;;1.80;;
20080;SDS011;10200;49.232;9.222;2023-12-28T10:09:34;2.97;;;1.97;;
20080;SDS011;10200;49.232;9.222;2023-12-28T10:11:59;2.70;;;2.13;;
20080;SDS011;10200;49.232;9.222;2023-12-28T10:14:25;3.83;;;2.37;;
20080;SDS011;10200;49.232;9.222;2023-12-28T10:16:51;4.33;;;2.00;;
20080;SDS011;10200;49.232;9.222;2023-12-28T10:19:21;3.23;;;2.23;;
20080;SDS011;10200;49.232;9.222;2023-12-28T10:21:48;3.40;;;1.87;;
20080;SDS011;10200;49.232;9.222;2023-12-28T10:24:13;4.00;;;2.37;;
20080;SDS011;10200;49.232;9.222;2023-12-28T10:26:39;2.87;;;2.03;;
20080;SDS011;10200;49.232;9.222;2023-12-28T10:29:05;2.67;;;2.13;;
20080;SDS011;10200;49.232;9.222;2023-12-28T10:31:30;3.57;;;2.00;;
20080;SDS011;10200;49.232;9.222;2023-12-28T10:33:59;3.83;;;2.30;;
20080;SDS011;10200;49.232;9.222;2023-12-28T10:36:28;3.97;;;2.10;;
20080;SDS011;10200;49.232;9.222;2023-12-28T10:38:54;4.93;;;3.40;;
20080;SDS011;10200;49.232;9.222;2023-12-28T10:41:21;3.33;;;2.10;;
20080;SDS011;10200;49.232;9.222;2023-12-28T10:46:30;2.50;;;2.20;;
20080;SDS011;10200;49.232;9.222;2023-12-28T10:49:05;3.17;;;1.90;;
20080;SDS011;10200;49.232;9.222;2023-12-28T10:51:36;4.57;;;2.17;;
20080;SDS011;10200;49.232;9.222;2023-12-28T10:56:52;5.10;;;2.10;;
20080;SDS011;10200;49.232;9.222;2023-12-28T11:01:54;4.13;;;2.97;;
20080;SDS011;10200;49.232;9.222;2023-12-28T11:04:24;3.53;;;2.27;;
20080;SDS011;10200;49.232;9.222;2023-12-28T11:06:59;2.67;;;1.90;;
20080;SDS011;10200;49.232;9.222;2023-12-28T11:09:27;5.30;;;2.60;;
20080;SDS011;10200;49.232;9.222;2023-12-28T11:11:55;8.03;;;2.10;;
20080;SDS011;10200;49.232;9.222;2023-12-28T11:14:24;2.97;;;2.47;;
20080;SDS011;10200;49.232;9.222;2023-12-28T11:16:51;4.67;;;2.97;;
20080;SDS011;10200;49.232;9.222;2023-12-28T11:19:17;5.00;;;3.83;;
20080;SDS011;10200;49.232;9.222;2023-12-28T11:21:43;5.37;;;2.83;;
20080;SDS011;10200;49.232;9.222;2023-12-28T11:24:09;4.77;;;2.47;;
20080;SDS011;10200;49.232;9.222;2023-12-28T11:26:35;3.10;;;2.40;;
20080;SDS011;10200;49.232;9.222;2023-12-28T11:29:01;3.60;;;1.97;;
20080;SDS011;10200;49.232;9.222;2023-12-28T11:31:27;8.43;;;3.80;;
20080;SDS011;10200;49.232;9.222;2023-12-28T11:33:53;3.83;;;2.97;;
20080;SDS011;10200;49.232;9.222;2023-12-28T11:36:21;4.80;;;3.40;;
20080;SDS011;10200;49.232;9.222;2023-12-28T11:38:50;4.00;;;2.73;;
20080;SDS011;10200;49.232;9.222;2023-12-28T11:41:24;2.67;;;2.20;;
20080;SDS011;10200;49.232;9.222;2023-12-28T11:43:54;3.50;;;2.47;;
20080;SDS011;10200;49.232;9.222;2023-12-28T11:46:22;3.70;;;3.20;;
20080;SDS011;10200;49.232;9.222;2023-12-28T11:48:48;3.87;;;3.03;;
20080;SDS011;10200;49.232;9.222;2023-12-28T11:51:14;3.50;;;2.53;;
20080;SDS011;10200;49.232;9.222;2023-12-28T11:53:40;3.73;;;2.43;;
20080;SDS011;10200;49.232;9.222;2023-12-28T11:56:08;4.50;;;3.27;;
20080;SDS011;10200;49.232;9.222;2023-12-28T11:58:35;5.33;;;3.70;;
20080;SDS011;10200;49.232;9.222;2023-12-28T12:01:01;5.17;;;3.13;;
20080;SDS011;10200;49.232;9.222;2023-12-28T12:03:27;4.70;;;2.80;;
20080;SDS011;10200;49.232;9.222;2023-12-28T12:05:55;4.37;;;2.87;;
20080;SDS011;10200;49.232;9.222;2023-12-28T12:08:22;4.27;;;2.40;;
20080;SDS011;10200;49.232;9.222;2023-12-28T12:10:48;5.37;;;2.80;;
20080;SDS011;10200;49.232;9.222;2023-12-28T12:13:13;6.23;;;3.70;;
20080;SDS011;10200;49.232;9.222;2023-12-28T12:15:39;2.53;;;2.33;;
20080;SDS011;10200;49.232;9.222;2023-12-28T12:18:05;3.33;;;2.43;;
20080;SDS011;10200;49.232;9.222;2023-12-28T12:20:31;3.43;;;2.63;;
20080;SDS011;10200;49.232;9.222;2023-12-28T12:23:00;3.20;;;2.27;;
20080;SDS011;10200;49.232;9.222;2023-12-28T12:25:26;3.33;;;2.20;;
20080;SDS011;10200;49.232;9.222;2023-12-28T12:27:53;3.23;;;2.10;;
20080;SDS011;10200;49.232;9.222;2023-12-28T12:30:19;2.30;;;2.10;;
20080;SDS011;10200;49.232;9.222;2023-12-28T12:32:44;3.60;;;2.40;;
20080;SDS011;10200;49.232;9.222;2023-12-28T12:35:10;3.07;;;2.07;;
20080;SDS011;10200;49.232;9.222;2023-12-28T12:37:37;2.80;;;2.23;;
20080;SDS011;10200;49.232;9.222;2023-12-28T12:40:03;3.40;;;2.13;;
20080;SDS011;10200;49.232;9.222;2023-12-28T12:42:31;4.27;;;2.17;;
20080;SDS011;10200;49.232;9.222;2023-12-28T12:44:59;2.87;;;1.87;;
20080;SDS011;10200;49.232;9.222;2023-12-28T12:47:25;2.77;;;1.73;;
20080;SDS011;10200;49.232;9.222;2023-12-28T12:49:55;1.93;;;1.83;;
20080;SDS011;10200;49.232;9.222;2023-12-28T12:52:21;10.93;;;5.37;;
20080;SDS011;10200;49.232;9.222;2023-12-28T12:54:58;3.43;;;2.47;;
20080;SDS011;10200;49.232;9.222;2023-12-28T12:57:26;3.70;;;1.90;;
20080;SDS011;10200;49.232;9.222;2023-12-28T12:59:52;2.10;;;1.80;;
20080;SDS011;10200;49.232;9.222;2023-12-28T13:02:18;4.77;;;2.00;;
20080;SDS011;10200;49.232;9.222;2023-12-28T13:04:43;2.87;;;1.80;;
20080;SDS011;10200;49.232;9.222;2023-12-28T13:07:09;3.80;;;1.90;;
20080;SDS011;10200;49.232;9.222;2023-12-28T13:09:34;3.57;;;1.60;;
20080;SDS011;10200;49.232;9.222;2023-12-28T13:12:00;1.60;;;1.30;;
20080;SDS011;10200;49.232;9.222;2023-12-28T13:14:28;4.40;;;2.80;;
20080;SDS011;10200;49.232;9.222;2023-12-28T13:16:54;2.90;;;2.40;;
20080;SDS011;10200;49.232;9.222;2023-12-28T13:19:20;2.63;;;1.93;;
20080;SDS011;10200;49.232;9.222;2023-12-28T13:21:46;2.83;;;1.47;;
20080;SDS011;10200;49.232;9.222;2023-12-28T13:24:12;3.30;;;1.57;;
20080;SDS011;10200;49.232;9.222;2023-12-28T13:26:37;2.33;;;1.93;;
20080;SDS011;10200;49.232;9.222;2023-12-28T13:29:03;1.97;;;1.77;;
20080;SDS011;10200;49.232;9.222;2023-12-28T13:31:28;2.60;;;1.40;;
20080;SDS011;10200;49.232;9.222;2023-12-28T13:33:54;3.60;;;1.67;;
20080;SDS011;10200;49.232;9.222;2023-12-28T13:36:20;2.60;;;1.80;;
20080;SDS011;10200;49.232;9.222;2023-12-28T13:38:46;2.00;;;1.53;;
20080;SDS011;10200;49.232;9.222;2023-12-28T13:41:12;2.00;;;1.80;;
20080;SDS011;10200;49.232;9.222;2023-12-28T13:43:38;3.23;;;1.90;;
20080;SDS011;10200;49.232;9.222;2023-12-28T13:46:03;3.17;;;2.07;;
20080;SDS011;10200;49.232;9.222;2023-12-28T13:48:30;5.80;;;2.17;;
20080;SDS011;10200;49.232;9.222;2023-12-28T13:50:55;3.03;;;1.80;;
20080;SDS011;10200;49.232;9.222;2023-12-28T13:53:21;4.00;;;1.93;;
20080;SDS011;10200;49.232;9.222;2023-12-28T13:55:46;2.57;;;1.57;;
20080;SDS011;10200;49.232;9.222;2023-12-28T13:58:12;4.40;;;1.87;;
20080;SDS011;10200;49.232;9.222;2023-12-28T14:00:39;2.63;;;1.90;;
20080;SDS011;10200;49.232;9.222;2023-12-28T14:03:05;6.00;;;2.07;;
20080;SDS011;10200;49.232;9.222;2023-12-28T14:05:30;2.60;;;1.70;;
20080;SDS011;10200;49.232;9.222;2023-12-28T14:07:56;2.70;;;2.03;;
20080;SDS011;10200;49.232;9.222;2023-12-28T14:10:22;2.23;;;1.57;;
20080;SDS011;10200;49.232;9.222;2023-12-28T14:12:47;5.63;;;2.50;;
20080;SDS011;10200;49.232;9.222;2023-12-28T14:15:13;3.07;;;2.17;;
20080;SDS011;10200;49.232;9.222;2023-12-28T14:17:41;2.33;;;1.73;;
20080;SDS011;10200;49.232;9.222;2023-12-28T14:20:07;2.80;;;2.00;;
20080;SDS011;10200;49.232;9.222;2023-12-28T14:22:36;2.90;;;1.83;;
20080;SDS011;10200;49.232;9.222;2023-12-28T14:25:03;5.60;;;2.03;;
20080;SDS011;10200;49.232;9.222;2023-12-28T14:27:29;2.53;;;2.00;;
20080;SDS011;10200;49.232;9.222;2023-12-28T14:29:55;3.00;;;2.10;;
20080;SDS011;10200;49.232;9.222;2023-12-28T14:32:21;2.43;;;2.10;;
20080;SDS011;10200;49.232;9.222;2023-12-28T14:34:47;2.30;;;2.10;;
20080;SDS011;10200;49.232;9.222;2023-12-28T14:37:13;2.27;;;2.07;;
20080;SDS011;10200;49.232;9.222;2023-12-28T14:39:39;2.30;;;1.90;;
20080;SDS011;10200;49.232;9.222;2023-12-28T14:42:04;2.10;;;1.67;;
20080;SDS011;10200;49.232;9.222;2023-12-28T14:44:30;3.43;;;2.00;;
20080;SDS011;10200;49.232;9.222;2023-12-28T14:46:56;2.40;;;1.93;;
20080;SDS011;10200;49.232;9.222;2023-12-28T14:49:22;3.97;;;2.13;;
20080;SDS011;10200;49.232;9.222;2023-12-28T14:51:47;2.27;;;1.80;;